sensor_id;sensor_type;location;lat;lon;timestamp;pressure;altitude;pressure_sealevel;temperature;humidity
45285;BME280;31026;43.780;25.948;2023-05-24T00:01:41;100573.13;;;20.32;66.06
45285;BME280;31026;43.780;25.948;2023-05-24T00:04:09;100579.19;;;20.34;66.02
45285;BME280;31026;43.780;25.948;2023-05-24T00:06:39;100563.53;;;20.30;65.59
45285;BME280;31026;43.780;25.948;2023-05-24T00:09:11;100562.50;;;20.31;66.08
45285;BME280;31026;43.780;25.948;2023-05-24T00:11:39;100546.41;;;20.31;66.01
45285;BME280;31026;43.780;25.948;2023-05-24T00:14:08;100559.81;;;20.31;65.98
45285;BME280;31026;43.780;25.948;2023-05-24T00:16:36;100557.16;;;20.31;66.10
45285;BME280;31026;43.780;25.948;2023-05-24T00:19:04;100555.16;;;20.33;65.78
45285;BME280;31026;43.780;25.948;2023-05-24T00:21:35;100552.47;;;20.33;65.88
45285;BME280;31026;43.780;25.948;2023-05-24T00:24:03;100549.09;;;20.31;65.86
45285;BME280;31026;43.780;25.948;2023-05-24T00:26:34;100558.84;;;20.32;66.11
45285;BME280;31026;43.780;25.948;2023-05-24T00:29:02;100544.72;;;20.30;65.79
45285;BME280;31026;43.780;25.948;2023-05-24T00:31:31;100539.19;;;20.31;65.48
45285;BME280;31026;43.780;25.948;2023-05-24T00:33:59;100555.00;;;20.34;65.70
45285;BME280;31026;43.780;25.948;2023-05-24T00:36:27;100555.28;;;20.31;65.93
45285;BME280;31026;43.780;25.948;2023-05-24T00:38:56;100536.34;;;20.33;65.55
45285;BME280;31026;43.780;25.948;2023-05-24T00:41:24;100554.47;;;20.31;65.89
45285;BME280;31026;43.780;25.948;2023-05-24T00:43:55;100542.75;;;20.32;65.44
45285;BME280;31026;43.780;25.948;2023-05-24T00:46:25;100532.13;;;20.30;65.49
45285;BME280;31026;43.780;25.948;2023-05-24T00:48:54;100546.25;;;20.32;66.03
45285;BME280;31026;43.780;25.948;2023-05-24T00:51:22;100538.66;;;20.27;65.82
45285;BME280;31026;43.780;25.948;2023-05-24T00:53:51;100554.31;;;20.32;65.78
45285;BME280;31026;43.780;25.948;2023-05-24T00:56:19;100544.03;;;20.27;65.51
45285;BME280;31026;43.780;25.948;2023-05-24T00:58:48;100565.19;;;20.31;66.06
45285;BME280;31026;43.780;25.948;2023-05-24T01:01:21;100549.22;;;20.29;65.92
45285;BME280;31026;43.780;25.948;2023-05-24T01:03:55;100557.47;;;20.27;66.01
45285;BME280;31026;43.780;25.948;2023-05-24T01:06:23;100553.06;;;20.26;65.54
45285;BME280;31026;43.780;25.948;2023-05-24T01:09:01;100553.06;;;20.26;65.57
45285;BME280;31026;43.780;25.948;2023-05-24T01:11:36;100560.16;;;20.27;65.84
45285;BME280;31026;43.780;25.948;2023-05-24T01:14:11;100555.75;;;20.26;65.67
45285;BME280;31026;43.780;25.948;2023-05-24T01:16:49;100551.41;;;20.25;65.92
45285;BME280;31026;43.780;25.948;2023-05-24T01:19:39;100555.06;;;20.24;65.72
45285;BME280;31026;43.780;25.948;2023-05-24T01:22:12;100557.59;;;20.26;65.70
45285;BME280;31026;43.780;25.948;2023-05-24T01:24:49;100566.50;;;20.26;65.62
45285;BME280;31026;43.780;25.948;2023-05-24T01:27:22;100564.81;;;20.25;66.04
45285;BME280;31026;43.780;25.948;2023-05-24T01:29:51;100570.19;;;20.25;65.56
45285;BME280;31026;43.780;25.948;2023-05-24T01:32:20;100563.56;;;20.20;65.61
45285;BME280;31026;43.780;25.948;2023-05-24T01:34:48;100569.50;;;20.23;65.61
45285;BME280;31026;43.780;25.948;2023-05-24T01:37:16;100567.66;;;20.24;65.94
45285;BME280;31026;43.780;25.948;2023-05-24T01:39:45;100575.56;;;20.25;65.47
45285;BME280;31026;43.780;25.948;2023-05-24T01:42:15;100553.38;;;20.23;65.57
45285;BME280;31026;43.780;25.948;2023-05-24T01:44:53;100566.94;;;20.22;65.72
45285;BME280;31026;43.780;25.948;2023-05-24T01:47:27;100572.31;;;20.22;66.04
45285;BME280;31026;43.780;25.948;2023-05-24T01:50:00;100562.28;;;20.24;65.73
45285;BME280;31026;43.780;25.948;2023-05-24T01:52:30;100557.19;;;20.21;65.47
45285;BME280;31026;43.780;25.948;2023-05-24T01:54:59;100567.50;;;20.25;65.75
45285;BME280;31026;43.780;25.948;2023-05-24T01:57:30;100564.13;;;20.23;65.48
45285;BME280;31026;43.780;25.948;2023-05-24T02:00:02;100566.13;;;20.21;65.50
45285;BME280;31026;43.780;25.948;2023-05-24T02:02:30;100572.91;;;20.16;65.99
45285;BME280;31026;43.780;25.948;2023-05-24T02:04:59;100569.53;;;20.14;65.79
45285;BME280;31026;43.780;25.948;2023-05-24T02:07:27;100571.06;;;20.16;66.14
45285;BME280;31026;43.780;25.948;2023-05-24T02:09:55;100579.41;;;20.13;66.23
45285;BME280;31026;43.780;25.948;2023-05-24T02:12:24;100574.03;;;20.13;65.85
45285;BME280;31026;43.780;25.948;2023-05-24T02:14:52;100582.09;;;20.13;65.76
45285;BME280;31026;43.780;25.948;2023-05-24T02:17:24;100568.53;;;20.15;66.07
45285;BME280;31026;43.780;25.948;2023-05-24T02:19:52;100572.03;;;20.15;66.13
45285;BME280;31026;43.780;25.948;2023-05-24T02:22:20;100576.19;;;20.10;65.98
45285;BME280;31026;43.780;25.948;2023-05-24T02:24:49;100577.03;;;20.10;65.98
45285;BME280;31026;43.780;25.948;2023-05-24T02:27:17;100566.66;;;20.15;65.94
45285;BME280;31026;43.780;25.948;2023-05-24T02:29:45;100575.03;;;20.12;66.18
45285;BME280;31026;43.780;25.948;2023-05-24T02:32:14;100584.06;;;20.11;66.37
45285;BME280;31026;43.780;25.948;2023-05-24T02:34:45;100577.63;;;20.04;66.24
45285;BME280;31026;43.780;25.948;2023-05-24T02:37:14;100586.38;;;20.06;66.16
45285;BME280;31026;43.780;25.948;2023-05-24T02:39:42;100575.31;;;20.09;66.27
45285;BME280;31026;43.780;25.948;2023-05-24T02:42:10;100586.06;;;20.09;66.07
45285;BME280;31026;43.780;25.948;2023-05-24T02:44:38;100564.47;;;20.01;66.34
45285;BME280;31026;43.780;25.948;2023-05-24T02:47:07;100579.72;;;20.10;65.81
45285;BME280;31026;43.780;25.948;2023-05-24T02:49:35;100587.06;;;20.08;65.77
45285;BME280;31026;43.780;25.948;2023-05-24T02:52:06;100577.72;;;20.12;66.02
45285;BME280;31026;43.780;25.948;2023-05-24T02:54:34;100580.00;;;20.07;66.19
45285;BME280;31026;43.780;25.948;2023-05-24T02:57:04;100587.63;;;20.12;66.15
45285;BME280;31026;43.780;25.948;2023-05-24T02:59:32;100584.25;;;20.10;65.63
45285;BME280;31026;43.780;25.948;2023-05-24T03:02:01;100621.66;;;20.11;65.82
45285;BME280;31026;43.780;25.948;2023-05-24T03:04:29;100581.09;;;20.14;66.10
45285;BME280;31026;43.780;25.948;2023-05-24T03:06:57;100587.06;;;20.08;65.93
45285;BME280;31026;43.780;25.948;2023-05-24T03:09:28;100568.84;;;20.12;65.98
45285;BME280;31026;43.780;25.948;2023-05-24T03:11:56;100600.88;;;20.13;65.71
45285;BME280;31026;43.780;25.948;2023-05-24T03:14:25;100590.13;;;20.13;66.11
45285;BME280;31026;43.780;25.948;2023-05-24T03:16:53;100594.66;;;20.13;65.69
45285;BME280;31026;43.780;25.948;2023-05-24T03:19:23;100590.44;;;20.10;66.19
45285;BME280;31026;43.780;25.948;2023-05-24T03:21:52;100586.50;;;20.04;65.90
45285;BME280;31026;43.780;25.948;2023-05-24T03:24:20;100591.59;;;20.08;65.85
45285;BME280;31026;43.780;25.948;2023-05-24T03:26:52;100585.69;;;20.04;66.18
45285;BME280;31026;43.780;25.948;2023-05-24T03:29:21;100585.91;;;20.11;65.77
45285;BME280;31026;43.780;25.948;2023-05-24T03:31:49;100574.03;;;20.13;65.74
45285;BME280;31026;43.780;25.948;2023-05-24T03:34:17;100588.16;;;20.15;65.84
45285;BME280;31026;43.780;25.948;2023-05-24T03:36:45;100593.13;;;20.10;65.81
45285;BME280;31026;43.780;25.948;2023-05-24T03:39:14;100588.56;;;20.20;65.73
45285;BME280;31026;43.780;25.948;2023-05-24T03:41:42;100583.75;;;20.24;65.75
45285;BME280;31026;43.780;25.948;2023-05-24T03:44:13;100583.31;;;20.29;65.54
45285;BME280;31026;43.780;25.948;2023-05-24T03:46:41;100584.31;;;20.27;65.32
45285;BME280;31026;43.780;25.948;2023-05-24T03:49:10;100588.38;;;20.32;65.54
45285;BME280;31026;43.780;25.948;2023-05-24T03:51:38;100600.41;;;20.27;65.37
45285;BME280;31026;43.780;25.948;2023-05-24T03:54:06;100596.72;;;20.29;65.68
45285;BME280;31026;43.780;25.948;2023-05-24T03:56:35;100598.84;;;20.25;65.44
45285;BME280;31026;43.780;25.948;2023-05-24T03:59:04;100603.97;;;20.18;65.60
45285;BME280;31026;43.780;25.948;2023-05-24T04:01:34;100606.25;;;20.13;65.07
45285;BME280;31026;43.780;25.948;2023-05-24T04:04:03;100612.22;;;20.07;64.64
45285;BME280;31026;43.780;25.948;2023-05-24T04:06:31;100607.00;;;20.05;65.15
45285;BME280;31026;43.780;25.948;2023-05-24T04:09:00;100603.09;;;20.27;64.95
45285;BME280;31026;43.780;25.948;2023-05-24T04:11:29;100609.50;;;20.17;65.94
45285;BME280;31026;43.780;25.948;2023-05-24T04:13:58;100601.88;;;20.12;66.16
45285;BME280;31026;43.780;25.948;2023-05-24T04:16:27;100617.69;;;20.15;66.15
45285;BME280;31026;43.780;25.948;2023-05-24T04:19:00;100622.34;;;20.13;66.16
45285;BME280;31026;43.780;25.948;2023-05-24T04:21:29;100619.41;;;20.16;65.78
45285;BME280;31026;43.780;25.948;2023-05-24T04:23:57;100604.56;;;20.12;65.98
45285;BME280;31026;43.780;25.948;2023-05-24T04:26:25;100617.69;;;20.15;66.24
45285;BME280;31026;43.780;25.948;2023-05-24T04:28:54;100562.16;;;19.59;66.23
45285;BME280;31026;43.780;25.948;2023-05-24T04:31:22;100620.34;;;20.25;66.01
45285;BME280;31026;43.780;25.948;2023-05-24T04:33:53;100623.69;;;20.37;65.59
45285;BME280;31026;43.780;25.948;2023-05-24T04:36:25;100625.66;;;20.35;65.23
45285;BME280;31026;43.780;25.948;2023-05-24T04:38:55;100613.41;;;20.32;65.76
45285;BME280;31026;43.780;25.948;2023-05-24T04:41:27;100618.31;;;20.37;65.33
45285;BME280;31026;43.780;25.948;2023-05-24T04:43:56;100611.97;;;20.38;65.60
45285;BME280;31026;43.780;25.948;2023-05-24T04:46:24;100625.66;;;20.35;65.44
45285;BME280;31026;43.780;25.948;2023-05-24T04:48:53;100623.97;;;20.43;65.39
45285;BME280;31026;43.780;25.948;2023-05-24T04:51:21;100619.09;;;20.47;65.49
45285;BME280;31026;43.780;25.948;2023-05-24T04:53:52;100621.78;;;20.47;65.06
45285;BME280;31026;43.780;25.948;2023-05-24T04:56:20;100610.34;;;20.45;65.08
45285;BME280;31026;43.780;25.948;2023-05-24T04:58:49;100634.94;;;20.50;65.02
45285;BME280;31026;43.780;25.948;2023-05-24T05:01:17;100627.75;;;20.41;65.25
45285;BME280;31026;43.780;25.948;2023-05-24T05:03:45;100628.66;;;20.32;65.80
45285;BME280;31026;43.780;25.948;2023-05-24T05:06:14;100624.28;;;20.31;65.84
45285;BME280;31026;43.780;25.948;2023-05-24T05:08:42;100629.38;;;20.34;66.03
45285;BME280;31026;43.780;25.948;2023-05-24T05:11:14;100635.59;;;20.24;66.11
45285;BME280;31026;43.780;25.948;2023-05-24T05:13:45;100630.56;;;20.21;66.51
45285;BME280;31026;43.780;25.948;2023-05-24T05:16:14;100630.22;;;20.34;65.76
45285;BME280;31026;43.780;25.948;2023-05-24T05:18:42;100631.16;;;20.43;65.41
45285;BME280;31026;43.780;25.948;2023-05-24T05:21:10;100625.53;;;20.36;66.08
45285;BME280;31026;43.780;25.948;2023-05-24T05:23:39;100627.25;;;20.37;65.78
45285;BME280;31026;43.780;25.948;2023-05-24T05:26:07;100642.09;;;20.32;66.11
45285;BME280;31026;43.780;25.948;2023-05-24T05:28:38;100637.28;;;20.35;65.87
45285;BME280;31026;43.780;25.948;2023-05-24T05:31:06;100636.69;;;20.41;65.86
45285;BME280;31026;43.780;25.948;2023-05-24T05:33:35;100640.34;;;20.40;66.01
45285;BME280;31026;43.780;25.948;2023-05-24T05:36:03;100639.84;;;20.27;66.48
45285;BME280;31026;43.780;25.948;2023-05-24T05:38:31;100645.53;;;20.14;66.50
45285;BME280;31026;43.780;25.948;2023-05-24T05:41:00;100648.66;;;20.19;66.90
45285;BME280;31026;43.780;25.948;2023-05-24T05:43:28;100641.34;;;20.02;66.84
45285;BME280;31026;43.780;25.948;2023-05-24T05:45:59;100657.50;;;20.30;66.23
45285;BME280;31026;43.780;25.948;2023-05-24T05:48:27;100660.31;;;20.38;66.25
45285;BME280;31026;43.780;25.948;2023-05-24T05:50:55;100667.78;;;20.44;66.00
45285;BME280;31026;43.780;25.948;2023-05-24T05:53:24;100653.88;;;20.49;66.04
45285;BME280;31026;43.780;25.948;2023-05-24T05:55:52;100660.22;;;20.57;65.35
45285;BME280;31026;43.780;25.948;2023-05-24T05:58:20;100658.69;;;20.45;65.85
45285;BME280;31026;43.780;25.948;2023-05-24T06:00:48;100663.09;;;20.46;65.98
45285;BME280;31026;43.780;25.948;2023-05-24T06:03:19;100675.28;;;20.40;66.32
45285;BME280;31026;43.780;25.948;2023-05-24T06:05:47;100666.97;;;20.34;66.59
45285;BME280;31026;43.780;25.948;2023-05-24T06:08:16;100659.28;;;20.39;66.00
45285;BME280;31026;43.780;25.948;2023-05-24T06:10:44;100673.63;;;20.30;66.66
45285;BME280;31026;43.780;25.948;2023-05-24T06:13:12;100661.63;;;20.24;66.97
45285;BME280;31026;43.780;25.948;2023-05-24T06:15:41;100680.88;;;20.47;66.23
45285;BME280;31026;43.780;25.948;2023-05-24T06:18:09;100673.84;;;20.46;66.01
45285;BME280;31026;43.780;25.948;2023-05-24T06:20:40;100667.81;;;20.34;66.59
45285;BME280;31026;43.780;25.948;2023-05-24T06:23:08;100671.06;;;20.28;66.54
45285;BME280;31026;43.780;25.948;2023-05-24T06:25:37;100670.91;;;20.39;66.35
45285;BME280;31026;43.780;25.948;2023-05-24T06:28:07;100661.28;;;20.37;66.64
45285;BME280;31026;43.780;25.948;2023-05-24T06:30:36;100674.00;;;20.35;66.95
45285;BME280;31026;43.780;25.948;2023-05-24T06:33:04;100660.69;;;20.43;66.60
45285;BME280;31026;43.780;25.948;2023-05-24T06:35:32;100660.03;;;20.31;67.04
45285;BME280;31026;43.780;25.948;2023-05-24T06:38:03;100670.31;;;20.45;66.21
45285;BME280;31026;43.780;25.948;2023-05-24T06:40:32;100662.69;;;20.41;66.78
45285;BME280;31026;43.780;25.948;2023-05-24T06:43:00;100661.56;;;20.43;66.25
45285;BME280;31026;43.780;25.948;2023-05-24T06:45:28;100664.97;;;20.36;66.38
45285;BME280;31026;43.780;25.948;2023-05-24T06:47:56;100668.47;;;20.46;66.33
45285;BME280;31026;43.780;25.948;2023-05-24T06:50:25;100654.19;;;20.45;66.59
45285;BME280;31026;43.780;25.948;2023-05-24T06:52:53;100655.69;;;20.20;66.96
45285;BME280;31026;43.780;25.948;2023-05-24T06:55:24;100659.06;;;20.22;67.39
45285;BME280;31026;43.780;25.948;2023-05-24T06:57:52;100658.50;;;20.19;67.56
45285;BME280;31026;43.780;25.948;2023-05-24T07:00:21;100663.72;;;20.30;66.73
45285;BME280;31026;43.780;25.948;2023-05-24T07:02:49;100662.09;;;20.47;66.50
45285;BME280;31026;43.780;25.948;2023-05-24T07:05:17;100669.28;;;20.56;66.56
45285;BME280;31026;43.780;25.948;2023-05-24T07:07:46;100660.72;;;20.33;66.98
45285;BME280;31026;43.780;25.948;2023-05-24T07:10:14;100664.75;;;20.19;67.31
45285;BME280;31026;43.780;25.948;2023-05-24T07:12:45;100656.28;;;20.14;67.42
45285;BME280;31026;43.780;25.948;2023-05-24T07:15:13;100659.38;;;20.19;67.36
45285;BME280;31026;43.780;25.948;2023-05-24T07:17:42;100648.94;;;20.16;67.70
45285;BME280;31026;43.780;25.948;2023-05-24T07:20:10;100664.75;;;20.19;67.80
45285;BME280;31026;43.780;25.948;2023-05-24T07:22:39;100647.53;;;20.12;67.79
45285;BME280;31026;43.780;25.948;2023-05-24T07:25:08;100652.16;;;20.20;67.83
45285;BME280;31026;43.780;25.948;2023-05-24T07:27:37;100659.94;;;20.60;66.18
45285;BME280;31026;43.780;25.948;2023-05-24T07:30:08;100659.41;;;20.47;66.88
45285;BME280;31026;43.780;25.948;2023-05-24T07:32:36;100655.88;;;20.46;66.79
45285;BME280;31026;43.780;25.948;2023-05-24T07:35:05;100658.09;;;20.51;66.79
45285;BME280;31026;43.780;25.948;2023-05-24T07:37:34;100659.66;;;20.63;66.34
45285;BME280;31026;43.780;25.948;2023-05-24T07:40:02;100663.47;;;20.61;66.46
45285;BME280;31026;43.780;25.948;2023-05-24T07:42:32;100650.00;;;20.71;65.93
45285;BME280;31026;43.780;25.948;2023-05-24T07:45:01;100654.63;;;20.78;65.51
45285;BME280;31026;43.780;25.948;2023-05-24T07:47:32;100647.91;;;20.55;66.52
45285;BME280;31026;43.780;25.948;2023-05-24T07:50:00;100662.78;;;20.49;66.20
45285;BME280;31026;43.780;25.948;2023-05-24T07:52:28;100654.53;;;20.23;67.37
45285;BME280;31026;43.780;25.948;2023-05-24T07:54:57;100666.34;;;20.59;66.51
45285;BME280;31026;43.780;25.948;2023-05-24T07:57:25;100675.78;;;20.54;66.10
45285;BME280;31026;43.780;25.948;2023-05-24T07:59:54;100677.19;;;20.58;66.13
45285;BME280;31026;43.780;25.948;2023-05-24T08:02:22;100660.69;;;20.43;66.48
45285;BME280;31026;43.780;25.948;2023-05-24T08:04:54;100653.56;;;20.71;66.11
45285;BME280;31026;43.780;25.948;2023-05-24T08:07:22;100662.81;;;20.77;65.80
45285;BME280;31026;43.780;25.948;2023-05-24T08:09:51;100668.19;;;20.77;66.12
45285;BME280;31026;43.780;25.948;2023-05-24T08:12:19;100663.69;;;20.77;65.50
45285;BME280;31026;43.780;25.948;2023-05-24T08:14:48;100669.16;;;20.48;66.65
45285;BME280;31026;43.780;25.948;2023-05-24T08:17:16;100663.59;;;20.32;66.87
45285;BME280;31026;43.780;25.948;2023-05-24T08:19:45;100661.19;;;20.29;67.07
45285;BME280;31026;43.780;25.948;2023-05-24T08:22:15;100661.03;;;20.30;67.28
45285;BME280;31026;43.780;25.948;2023-05-24T08:24:44;100665.97;;;20.25;67.13
45285;BME280;31026;43.780;25.948;2023-05-24T08:27:12;100668.66;;;20.35;67.31
45285;BME280;31026;43.780;25.948;2023-05-24T08:29:41;100661.88;;;20.31;67.41
45285;BME280;31026;43.780;25.948;2023-05-24T08:32:09;100661.94;;;20.49;66.77
45285;BME280;31026;43.780;25.948;2023-05-24T08:34:37;100675.13;;;20.42;66.83
45285;BME280;31026;43.780;25.948;2023-05-24T08:37:06;100665.47;;;20.49;66.60
45285;BME280;31026;43.780;25.948;2023-05-24T08:39:37;100675.72;;;20.36;66.87
45285;BME280;31026;43.780;25.948;2023-05-24T08:42:05;100663.28;;;20.35;67.32
45285;BME280;31026;43.780;25.948;2023-05-24T08:44:34;100674.72;;;20.37;66.83
45285;BME280;31026;43.780;25.948;2023-05-24T08:47:08;100670.59;;;20.42;67.32
45285;BME280;31026;43.780;25.948;2023-05-24T08:49:37;100675.47;;;20.66;66.06
45285;BME280;31026;43.780;25.948;2023-05-24T08:52:05;100674.78;;;20.55;66.77
45285;BME280;31026;43.780;25.948;2023-05-24T08:54:38;100659.56;;;20.45;66.83
45285;BME280;31026;43.780;25.948;2023-05-24T08:57:07;100663.16;;;20.26;67.13
45285;BME280;31026;43.780;25.948;2023-05-24T08:59:36;100675.50;;;20.19;67.31
45285;BME280;31026;43.780;25.948;2023-05-24T09:02:04;100663.72;;;20.30;67.56
45285;BME280;31026;43.780;25.948;2023-05-24T09:04:33;100676.66;;;20.44;67.07
45285;BME280;31026;43.780;25.948;2023-05-24T09:07:03;100670.91;;;20.39;67.42
45285;BME280;31026;43.780;25.948;2023-05-24T09:09:31;100657.31;;;20.41;66.91
45285;BME280;31026;43.780;25.948;2023-05-24T09:12:04;100662.97;;;20.48;66.91
45285;BME280;31026;43.780;25.948;2023-05-24T09:14:32;100668.84;;;20.51;66.95
45285;BME280;31026;43.780;25.948;2023-05-24T09:17:01;100664.47;;;20.60;66.61
45285;BME280;31026;43.780;25.948;2023-05-24T09:19:30;100667.72;;;20.63;66.34
45285;BME280;31026;43.780;25.948;2023-05-24T09:21:58;100672.78;;;20.66;66.51
45285;BME280;31026;43.780;25.948;2023-05-24T09:24:26;100672.50;;;20.70;66.15
45285;BME280;31026;43.780;25.948;2023-05-24T09:26:55;100681.53;;;20.69;66.24
45285;BME280;31026;43.780;25.948;2023-05-24T09:29:36;100671.38;;;20.62;66.28
45285;BME280;31026;43.780;25.948;2023-05-24T09:32:06;100668.75;;;20.43;67.25
45285;BME280;31026;43.780;25.948;2023-05-24T09:34:38;100666.34;;;20.50;66.63
45285;BME280;31026;43.780;25.948;2023-05-24T09:37:09;100672.22;;;20.63;66.22
45285;BME280;31026;43.780;25.948;2023-05-24T09:39:37;100676.88;;;20.71;66.30
45285;BME280;31026;43.780;25.948;2023-05-24T09:42:06;100668.47;;;20.83;65.69
45285;BME280;31026;43.780;25.948;2023-05-24T09:44:37;100664.53;;;20.78;65.85
45285;BME280;31026;43.780;25.948;2023-05-24T09:47:06;100674.44;;;20.77;66.16
45285;BME280;31026;43.780;25.948;2023-05-24T09:49:36;100656.72;;;20.47;66.91
45285;BME280;31026;43.780;25.948;2023-05-24T09:52:05;100657.53;;;20.57;66.52
45285;BME280;31026;43.780;25.948;2023-05-24T09:54:33;100651.28;;;20.66;66.13
45285;BME280;31026;43.780;25.948;2023-05-24T09:57:04;100664.34;;;20.61;66.41
45285;BME280;31026;43.780;25.948;2023-05-24T09:59:32;100655.84;;;20.56;66.29
45285;BME280;31026;43.780;25.948;2023-05-24T10:02:10;100651.88;;;20.60;66.38
45285;BME280;31026;43.780;25.948;2023-05-24T10:04:38;100658.97;;;20.61;66.54
45285;BME280;31026;43.780;25.948;2023-05-24T10:07:07;100666.34;;;20.50;66.55
45285;BME280;31026;43.780;25.948;2023-05-24T10:09:36;100649.34;;;20.49;66.90
45285;BME280;31026;43.780;25.948;2023-05-24T10:12:05;100653.59;;;20.52;66.73
45285;BME280;31026;43.780;25.948;2023-05-24T10:14:35;100649.53;;;20.48;66.91
45285;BME280;31026;43.780;25.948;2023-05-24T10:17:04;100655.88;;;20.46;66.67
45285;BME280;31026;43.780;25.948;2023-05-24T10:19:35;100639.09;;;20.35;67.27
45285;BME280;31026;43.780;25.948;2023-05-24T10:22:06;100640.84;;;20.63;66.62
45285;BME280;31026;43.780;25.948;2023-05-24T10:24:38;100637.09;;;20.74;66.22
45285;BME280;31026;43.780;25.948;2023-05-24T10:27:08;100643.28;;;20.47;67.00
45285;BME280;31026;43.780;25.948;2023-05-24T10:29:42;100651.91;;;20.51;67.18
45285;BME280;31026;43.780;25.948;2023-05-24T10:32:15;100644.97;;;20.85;66.02
45285;BME280;31026;43.780;25.948;2023-05-24T10:34:47;100634.28;;;20.76;65.83
45285;BME280;31026;43.780;25.948;2023-05-24T10:37:18;100635.91;;;20.49;66.49
45285;BME280;31026;43.780;25.948;2023-05-24T10:39:46;100636.38;;;20.44;66.82
45285;BME280;31026;43.780;25.948;2023-05-24T10:42:15;100631.97;;;20.53;66.77
45285;BME280;31026;43.780;25.948;2023-05-24T10:44:43;100619.97;;;20.48;66.54
45285;BME280;31026;43.780;25.948;2023-05-24T10:47:12;100617.03;;;20.41;67.17
45285;BME280;31026;43.780;25.948;2023-05-24T10:49:49;100616.16;;;20.78;65.73
45285;BME280;31026;43.780;25.948;2023-05-24T10:52:18;100628.97;;;20.56;66.84
45285;BME280;31026;43.780;25.948;2023-05-24T10:55:02;100613.00;;;20.55;66.75
45285;BME280;31026;43.780;25.948;2023-05-24T10:57:32;100607.22;;;20.59;66.45
45285;BME280;31026;43.780;25.948;2023-05-24T11:00:24;100601.53;;;20.62;66.54
45285;BME280;31026;43.780;25.948;2023-05-24T11:02:58;100593.63;;;20.61;66.68
45285;BME280;31026;43.780;25.948;2023-05-24T11:05:33;100603.25;;;20.63;66.71
45285;BME280;31026;43.780;25.948;2023-05-24T11:08:02;100598.16;;;20.51;66.68
45285;BME280;31026;43.780;25.948;2023-05-24T11:10:35;100589.94;;;20.62;66.36
45285;BME280;31026;43.780;25.948;2023-05-24T11:13:05;100592.88;;;20.31;67.65
45285;BME280;31026;43.780;25.948;2023-05-24T11:15:35;100591.22;;;20.30;67.79
45285;BME280;31026;43.780;25.948;2023-05-24T11:18:13;100586.44;;;20.52;66.55
45285;BME280;31026;43.780;25.948;2023-05-24T11:20:44;100582.03;;;20.60;66.92
45285;BME280;31026;43.780;25.948;2023-05-24T11:23:13;100593.22;;;20.83;65.72
45285;BME280;31026;43.780;25.948;2023-05-24T11:25:42;100592.66;;;20.80;66.24
45285;BME280;31026;43.780;25.948;2023-05-24T11:28:10;100579.09;;;20.81;65.62
45285;BME280;31026;43.780;25.948;2023-05-24T11:30:39;100570.06;;;20.73;65.88
45285;BME280;31026;43.780;25.948;2023-05-24T11:33:14;100571.88;;;20.54;66.64
45285;BME280;31026;43.780;25.948;2023-05-24T11:35:45;100578.38;;;20.61;66.74
45285;BME280;31026;43.780;25.948;2023-05-24T11:38:14;100566.75;;;20.61;66.66
45285;BME280;31026;43.780;25.948;2023-05-24T11:40:43;100578.81;;;20.75;66.25
45285;BME280;31026;43.780;25.948;2023-05-24T11:43:12;100578.31;;;20.71;66.32
45285;BME280;31026;43.780;25.948;2023-05-24T11:45:42;100562.25;;;20.61;66.67
45285;BME280;31026;43.780;25.948;2023-05-24T11:48:12;100571.22;;;20.70;66.23
45285;BME280;31026;43.780;25.948;2023-05-24T11:50:42;100554.56;;;20.66;66.46
45285;BME280;31026;43.780;25.948;2023-05-24T11:53:13;100564.09;;;20.79;66.01
45285;BME280;31026;43.780;25.948;2023-05-24T11:55:42;100536.00;;;20.73;65.96
45285;BME280;31026;43.780;25.948;2023-05-24T11:58:12;100544.38;;;20.70;66.24
45285;BME280;31026;43.780;25.948;2023-05-24T12:00:41;100558.38;;;20.36;67.24
45285;BME280;31026;43.780;25.948;2023-05-24T12:03:09;100540.47;;;20.55;66.62
45285;BME280;31026;43.780;25.948;2023-05-24T12:05:38;100541.91;;;20.49;66.95
45285;BME280;31026;43.780;25.948;2023-05-24T12:08:07;100533.97;;;20.57;66.74
45285;BME280;31026;43.780;25.948;2023-05-24T12:10:39;100546.06;;;20.43;67.04
45285;BME280;31026;43.780;25.948;2023-05-24T12:13:17;100538.25;;;20.22;67.32
45285;BME280;31026;43.780;25.948;2023-05-24T12:15:47;100540.69;;;20.16;67.99
45285;BME280;31026;43.780;25.948;2023-05-24T12:18:17;100527.56;;;20.13;67.72
45285;BME280;31026;43.780;25.948;2023-05-24T12:20:45;100542.50;;;20.15;67.71
45285;BME280;31026;43.780;25.948;2023-05-24T12:23:13;100528.41;;;20.13;68.13
45285;BME280;31026;43.780;25.948;2023-05-24T12:25:45;100537.13;;;20.15;68.29
45285;BME280;31026;43.780;25.948;2023-05-24T12:28:14;100518.66;;;20.12;67.87
45285;BME280;31026;43.780;25.948;2023-05-24T12:30:42;100515.28;;;20.10;68.05
45285;BME280;31026;43.780;25.948;2023-05-24T12:33:11;100514.28;;;20.11;67.89
45285;BME280;31026;43.780;25.948;2023-05-24T12:35:39;100503.34;;;20.22;67.54
45285;BME280;31026;43.780;25.948;2023-05-24T12:38:08;100512.75;;;20.54;66.94
45285;BME280;31026;43.780;25.948;2023-05-24T12:40:40;100516.88;;;20.31;67.46
45285;BME280;31026;43.780;25.948;2023-05-24T12:43:11;100508.44;;;20.25;67.88
45285;BME280;31026;43.780;25.948;2023-05-24T12:45:40;100512.94;;;20.25;68.12
45285;BME280;31026;43.780;25.948;2023-05-24T12:48:08;100505.44;;;20.29;67.64
45285;BME280;31026;43.780;25.948;2023-05-24T12:50:37;100512.59;;;20.38;67.65
45285;BME280;31026;43.780;25.948;2023-05-24T12:53:05;100504.53;;;20.65;66.99